sensor_id;sensor_type;location;lat;lon;timestamp;P1;durP1;ratioP1;P2;durP2;ratioP2
11731;SDS011;5922;53.734;10.258;2023-04-03T00:02:11;4.20;;;2.30;;
11731;SDS011;5922;53.734;10.258;2023-04-03T00:04:38;5.70;;;2.07;;
11731;SDS011;5922;53.734;10.258;2023-04-03T00:07:07;2.80;;;1.80;;
11731;SDS011;5922;53.734;10.258;2023-04-03T00:09:34;4.60;;;2.20;;
11731;SDS011;5922;53.734;10.258;2023-04-03T00:12:01;6.17;;;2.50;;
11731;SDS011;5922;53.734;10.258;2023-04-03T00:14:29;11.57;;;2.47;;
11731;SDS011;5922;53.734;10.258;2023-04-03T00:16:56;6.03;;;2.00;;
11731;SDS011;5922;53.734;10.258;2023-04-03T00:19:23;3.70;;;2.03;;
11731;SDS011;5922;53.734;10.258;2023-04-03T00:21:50;6.07;;;2.50;;
11731;SDS011;5922;53.734;10.258;2023-04-03T00:24:19;3.93;;;2.00;;
11731;SDS011;5922;53.734;10.258;2023-04-03T00:26:47;6.67;;;2.23;;
11731;SDS011;5922;53.734;10.258;2023-04-03T00:29:14;6.17;;;2.30;;
11731;SDS011;5922;53.734;10.258;2023-04-03T00:31:41;5.40;;;2.10;;
11731;SDS011;5922;53.734;10.258;2023-04-03T00:34:08;6.03;;;2.27;;
11731;SDS011;5922;53.734;10.258;2023-04-03T00:36:36;4.53;;;2.27;;
11731;SDS011;5922;53.734;10.258;2023-04-03T00:39:03;6.77;;;2.27;;
11731;SDS011;5922;53.734;10.258;2023-04-03T00:41:32;5.30;;;2.00;;
11731;SDS011;5922;53.734;10.258;2023-04-03T00:44:00;6.17;;;2.20;;
11731;SDS011;5922;53.734;10.258;2023-04-03T00:46:27;6.23;;;2.10;;
11731;SDS011;5922;53.734;10.258;2023-04-03T00:48:54;4.67;;;2.03;;
11731;SDS011;5922;53.734;10.258;2023-04-03T00:51:23;3.00;;;1.80;;
11731;SDS011;5922;53.734;10.258;2023-04-03T00:53:52;4.70;;;2.40;;
11731;SDS011;5922;53.734;10.258;2023-04-03T00:56:21;6.13;;;2.40;;
11731;SDS011;5922;53.734;10.258;2023-04-03T00:58:53;5.00;;;2.23;;
11731;SDS011;5922;53.734;10.258;2023-04-03T01:01:21;5.77;;;2.00;;
11731;SDS011;5922;53.734;10.258;2023-04-03T01:03:49;3.77;;;1.80;;
11731;SDS011;5922;53.734;10.258;2023-04-03T01:06:17;3.10;;;1.93;;
11731;SDS011;5922;53.734;10.258;2023-04-03T01:08:46;3.97;;;2.00;;
11731;SDS011;5922;53.734;10.258;2023-04-03T01:11:14;4.67;;;1.53;;
11731;SDS011;5922;53.734;10.258;2023-04-03T01:13:41;5.60;;;2.07;;
11731;SDS011;5922;53.734;10.258;2023-04-03T01:16:10;2.23;;;1.60;;
11731;SDS011;5922;53.734;10.258;2023-04-03T01:18:38;2.87;;;1.70;;
11731;SDS011;5922;53.734;10.258;2023-04-03T01:21:10;7.50;;;2.10;;
11731;SDS011;5922;53.734;10.258;2023-04-03T01:23:46;5.43;;;2.17;;
11731;SDS011;5922;53.734;10.258;2023-04-03T01:26:17;7.77;;;2.00;;
11731;SDS011;5922;53.734;10.258;2023-04-03T01:28:45;6.43;;;1.80;;
11731;SDS011;5922;53.734;10.258;2023-04-03T01:31:16;4.60;;;2.00;;
11731;SDS011;5922;53.734;10.258;2023-04-03T01:33:46;7.10;;;2.33;;
11731;SDS011;5922;53.734;10.258;2023-04-03T01:36:14;5.93;;;1.90;;
11731;SDS011;5922;53.734;10.258;2023-04-03T01:38:42;5.57;;;2.20;;
11731;SDS011;5922;53.734;10.258;2023-04-03T01:41:09;6.40;;;2.33;;
11731;SDS011;5922;53.734;10.258;2023-04-03T01:43:36;4.17;;;1.80;;
11731;SDS011;5922;53.734;10.258;2023-04-03T01:46:03;3.33;;;1.60;;
11731;SDS011;5922;53.734;10.258;2023-04-03T01:48:31;5.40;;;2.10;;
11731;SDS011;5922;53.734;10.258;2023-04-03T01:50:59;4.33;;;2.03;;
11731;SDS011;5922;53.734;10.258;2023-04-03T01:53:27;3.03;;;2.10;;
11731;SDS011;5922;53.734;10.258;2023-04-03T01:55:54;5.43;;;2.20;;
11731;SDS011;5922;53.734;10.258;2023-04-03T01:58:21;9.23;;;1.90;;
11731;SDS011;5922;53.734;10.258;2023-04-03T02:00:48;5.87;;;2.10;;
11731;SDS011;5922;53.734;10.258;2023-04-03T02:03:16;3.87;;;1.90;;
11731;SDS011;5922;53.734;10.258;2023-04-03T02:05:44;3.67;;;1.93;;
11731;SDS011;5922;53.734;10.258;2023-04-03T02:08:13;6.37;;;2.07;;
11731;SDS011;5922;53.734;10.258;2023-04-03T02:10:43;5.03;;;1.87;;
11731;SDS011;5922;53.734;10.258;2023-04-03T02:13:10;6.07;;;1.87;;
11731;SDS011;5922;53.734;10.258;2023-04-03T02:15:38;7.73;;;2.60;;
11731;SDS011;5922;53.734;10.258;2023-04-03T02:18:05;5.87;;;2.10;;
11731;SDS011;5922;53.734;10.258;2023-04-03T02:20:33;7.13;;;2.20;;
11731;SDS011;5922;53.734;10.258;2023-04-03T02:23:00;9.73;;;2.30;;
11731;SDS011;5922;53.734;10.258;2023-04-03T02:25:29;4.80;;;2.20;;
11731;SDS011;5922;53.734;10.258;2023-04-03T02:27:57;5.30;;;2.30;;
11731;SDS011;5922;53.734;10.258;2023-04-03T02:30:24;7.60;;;2.37;;
11731;SDS011;5922;53.734;10.258;2023-04-03T02:32:51;5.47;;;2.07;;
11731;SDS011;5922;53.734;10.258;2023-04-03T02:35:19;4.10;;;2.13;;
11731;SDS011;5922;53.734;10.258;2023-04-03T02:37:46;4.70;;;2.00;;
11731;SDS011;5922;53.734;10.258;2023-04-03T02:40:13;7.17;;;2.33;;
11731;SDS011;5922;53.734;10.258;2023-04-03T02:42:42;4.67;;;2.10;;
11731;SDS011;5922;53.734;10.258;2023-04-03T02:45:10;4.07;;;1.80;;
11731;SDS011;5922;53.734;10.258;2023-04-03T02:47:37;5.97;;;1.80;;
11731;SDS011;5922;53.734;10.258;2023-04-03T02:50:04;6.47;;;2.17;;
11731;SDS011;5922;53.734;10.258;2023-04-03T02:52:32;6.40;;;2.30;;
11731;SDS011;5922;53.734;10.258;2023-04-03T02:54:59;8.00;;;2.77;;
11731;SDS011;5922;53.734;10.258;2023-04-03T02:57:26;4.93;;;1.83;;
11731;SDS011;5922;53.734;10.258;2023-04-03T02:59:55;4.00;;;2.13;;
11731;SDS011;5922;53.734;10.258;2023-04-03T03:02:22;3.90;;;1.70;;
11731;SDS011;5922;53.734;10.258;2023-04-03T03:04:49;6.60;;;2.40;;
11731;SDS011;5922;53.734;10.258;2023-04-03T03:07:16;5.73;;;2.10;;
11731;SDS011;5922;53.734;10.258;2023-04-03T03:09:43;5.00;;;2.37;;
11731;SDS011;5922;53.734;10.258;2023-04-03T03:12:11;5.50;;;2.10;;
11731;SDS011;5922;53.734;10.258;2023-04-03T03:14:38;5.90;;;2.20;;
11731;SDS011;5922;53.734;10.258;2023-04-03T03:17:07;4.47;;;2.03;;
11731;SDS011;5922;53.734;10.258;2023-04-03T03:19:34;5.57;;;2.13;;
11731;SDS011;5922;53.734;10.258;2023-04-03T03:22:01;5.43;;;1.90;;
11731;SDS011;5922;53.734;10.258;2023-04-03T03:24:28;4.47;;;2.20;;
11731;SDS011;5922;53.734;10.258;2023-04-03T03:26:56;3.03;;;1.97;;
11731;SDS011;5922;53.734;10.258;2023-04-03T03:29:23;4.63;;;1.73;;
11731;SDS011;5922;53.734;10.258;2023-04-03T03:31:51;3.13;;;2.20;;
11731;SDS011;5922;53.734;10.258;2023-04-03T03:34:20;5.13;;;2.00;;
11731;SDS011;5922;53.734;10.258;2023-04-03T03:36:47;3.40;;;1.83;;
11731;SDS011;5922;53.734;10.258;2023-04-03T03:39:14;5.43;;;1.77;;
11731;SDS011;5922;53.734;10.258;2023-04-03T03:41:42;6.90;;;2.27;;
11731;SDS011;5922;53.734;10.258;2023-04-03T03:44:09;3.53;;;1.70;;
11731;SDS011;5922;53.734;10.258;2023-04-03T03:46:36;4.40;;;2.07;;
11731;SDS011;5922;53.734;10.258;2023-04-03T03:49:04;2.20;;;1.63;;
11731;SDS011;5922;53.734;10.258;2023-04-03T03:51:32;5.00;;;2.10;;
11731;SDS011;5922;53.734;10.258;2023-04-03T03:54:00;3.13;;;1.70;;
11731;SDS011;5922;53.734;10.258;2023-04-03T03:56:27;5.13;;;1.77;;
11731;SDS011;5922;53.734;10.258;2023-04-03T03:58:55;5.43;;;1.63;;
11731;SDS011;5922;53.734;10.258;2023-04-03T04:01:22;2.57;;;1.80;;
11731;SDS011;5922;53.734;10.258;2023-04-03T04:03:49;4.63;;;2.20;;
11731;SDS011;5922;53.734;10.258;2023-04-03T04:06:18;3.60;;;1.63;;
11731;SDS011;5922;53.734;10.258;2023-04-03T04:08:47;6.13;;;2.10;;
11731;SDS011;5922;53.734;10.258;2023-04-03T04:11:14;4.93;;;2.30;;
11731;SDS011;5922;53.734;10.258;2023-04-03T04:13:42;3.30;;;1.87;;
11731;SDS011;5922;53.734;10.258;2023-04-03T04:16:09;3.37;;;2.10;;
11731;SDS011;5922;53.734;10.258;2023-04-03T04:18:36;3.23;;;2.07;;
11731;SDS011;5922;53.734;10.258;2023-04-03T04:21:03;3.53;;;1.70;;
11731;SDS011;5922;53.734;10.258;2023-04-03T04:23:31;4.23;;;1.97;;
11731;SDS011;5922;53.734;10.258;2023-04-03T04:25:59;3.80;;;1.70;;
11731;SDS011;5922;53.734;10.258;2023-04-03T04:28:26;6.77;;;1.90;;
11731;SDS011;5922;53.734;10.258;2023-04-03T04:30:54;4.07;;;1.80;;
11731;SDS011;5922;53.734;10.258;2023-04-03T04:33:21;6.07;;;2.23;;
11731;SDS011;5922;53.734;10.258;2023-04-03T04:35:48;4.83;;;2.07;;
11731;SDS011;5922;53.734;10.258;2023-04-03T04:38:16;8.10;;;5.23;;
11731;SDS011;5922;53.734;10.258;2023-04-03T04:40:44;10.60;;;4.57;;
11731;SDS011;5922;53.734;10.258;2023-04-03T04:43:12;7.50;;;4.17;;
11731;SDS011;5922;53.734;10.258;2023-04-03T04:45:40;4.40;;;3.00;;
11731;SDS011;5922;53.734;10.258;2023-04-03T04:48:07;5.03;;;3.13;;
11731;SDS011;5922;53.734;10.258;2023-04-03T04:50:34;6.43;;;2.80;;
11731;SDS011;5922;53.734;10.258;2023-04-03T04:53:02;5.40;;;2.30;;
11731;SDS011;5922;53.734;10.258;2023-04-03T04:55:29;3.60;;;2.07;;
11731;SDS011;5922;53.734;10.258;2023-04-03T04:57:56;5.30;;;2.03;;
11731;SDS011;5922;53.734;10.258;2023-04-03T05:00:25;3.77;;;2.03;;
11731;SDS011;5922;53.734;10.258;2023-04-03T05:02:52;6.10;;;2.60;;
11731;SDS011;5922;53.734;10.258;2023-04-03T05:05:19;8.40;;;2.40;;
11731;SDS011;5922;53.734;10.258;2023-04-03T05:07:47;3.40;;;1.90;;
11731;SDS011;5922;53.734;10.258;2023-04-03T05:10:14;2.33;;;1.70;;
11731;SDS011;5922;53.734;10.258;2023-04-03T05:12:41;6.23;;;1.90;;
11731;SDS011;5922;53.734;10.258;2023-04-03T05:15:09;3.80;;;2.00;;
11731;SDS011;5922;53.734;10.258;2023-04-03T05:17:38;6.77;;;2.40;;
11731;SDS011;5922;53.734;10.258;2023-04-03T05:20:05;6.50;;;2.30;;
11731;SDS011;5922;53.734;10.258;2023-04-03T05:22:33;4.53;;;2.47;;
11731;SDS011;5922;53.734;10.258;2023-04-03T05:25:00;4.50;;;2.40;;
11731;SDS011;5922;53.734;10.258;2023-04-03T05:27:28;7.93;;;2.40;;
11731;SDS011;5922;53.734;10.258;2023-04-03T05:29:55;5.13;;;2.50;;
11731;SDS011;5922;53.734;10.258;2023-04-03T05:32:23;3.77;;;2.40;;
11731;SDS011;5922;53.734;10.258;2023-04-03T05:34:53;4.90;;;2.17;;
11731;SDS011;5922;53.734;10.258;2023-04-03T05:37:20;8.77;;;2.80;;
11731;SDS011;5922;53.734;10.258;2023-04-03T05:39:48;4.03;;;2.60;;
11731;SDS011;5922;53.734;10.258;2023-04-03T05:42:15;5.27;;;2.30;;
11731;SDS011;5922;53.734;10.258;2023-04-03T05:44:44;7.73;;;2.73;;
11731;SDS011;5922;53.734;10.258;2023-04-03T05:47:12;7.60;;;2.67;;
11731;SDS011;5922;53.734;10.258;2023-04-03T05:49:39;4.90;;;2.53;;
11731;SDS011;5922;53.734;10.258;2023-04-03T05:52:10;4.97;;;2.40;;
11731;SDS011;5922;53.734;10.258;2023-04-03T05:54:43;6.83;;;2.60;;
11731;SDS011;5922;53.734;10.258;2023-04-03T05:57:13;8.40;;;2.23;;
11731;SDS011;5922;53.734;10.258;2023-04-03T05:59:41;4.67;;;2.03;;
11731;SDS011;5922;53.734;10.258;2023-04-03T06:02:09;4.23;;;2.20;;
11731;SDS011;5922;53.734;10.258;2023-04-03T06:04:36;7.73;;;2.57;;
11731;SDS011;5922;53.734;10.258;2023-04-03T06:07:04;3.90;;;1.97;;
11731;SDS011;5922;53.734;10.258;2023-04-03T06:09:46;5.43;;;2.50;;
11731;SDS011;5922;53.734;10.258;2023-04-03T06:12:14;7.60;;;2.17;;
11731;SDS011;5922;53.734;10.258;2023-04-03T06:14:41;4.43;;;2.20;;
11731;SDS011;5922;53.734;10.258;2023-04-03T06:17:08;3.63;;;2.10;;
11731;SDS011;5922;53.734;10.258;2023-04-03T06:19:37;5.83;;;2.40;;
11731;SDS011;5922;53.734;10.258;2023-04-03T06:22:04;3.87;;;2.20;;
11731;SDS011;5922;53.734;10.258;2023-04-03T06:24:32;6.03;;;2.67;;
11731;SDS011;5922;53.734;10.258;2023-04-03T06:27:02;8.67;;;2.57;;
11731;SDS011;5922;53.734;10.258;2023-04-03T06:29:29;6.70;;;2.30;;
11731;SDS011;5922;53.734;10.258;2023-04-03T06:31:57;8.63;;;2.33;;
11731;SDS011;5922;53.734;10.258;2023-04-03T06:34:24;7.63;;;2.57;;
11731;SDS011;5922;53.734;10.258;2023-04-03T06:36:51;6.53;;;2.33;;
11731;SDS011;5922;53.734;10.258;2023-04-03T06:39:19;5.47;;;2.50;;
11731;SDS011;5922;53.734;10.258;2023-04-03T06:41:47;6.67;;;2.17;;
11731;SDS011;5922;53.734;10.258;2023-04-03T06:44:24;4.40;;;1.93;;
11731;SDS011;5922;53.734;10.258;2023-04-03T06:46:51;3.33;;;1.80;;
11731;SDS011;5922;53.734;10.258;2023-04-03T06:49:19;4.90;;;2.10;;
11731;SDS011;5922;53.734;10.258;2023-04-03T06:51:46;5.10;;;2.57;;
11731;SDS011;5922;53.734;10.258;2023-04-03T06:54:13;3.33;;;2.00;;
11731;SDS011;5922;53.734;10.258;2023-04-03T06:56:41;4.17;;;2.13;;
11731;SDS011;5922;53.734;10.258;2023-04-03T06:59:08;5.00;;;2.00;;
11731;SDS011;5922;53.734;10.258;2023-04-03T07:01:37;4.67;;;1.97;;
11731;SDS011;5922;53.734;10.258;2023-04-03T07:04:05;6.83;;;2.60;;
11731;SDS011;5922;53.734;10.258;2023-04-03T07:06:32;4.07;;;2.33;;
11731;SDS011;5922;53.734;10.258;2023-04-03T07:11:48;6.10;;;2.33;;
11731;SDS011;5922;53.734;10.258;2023-04-03T07:14:16;5.97;;;2.33;;
11731;SDS011;5922;53.734;10.258;2023-04-03T07:16:44;3.90;;;2.20;;
11731;SDS011;5922;53.734;10.258;2023-04-03T07:19:12;8.40;;;2.30;;
11731;SDS011;5922;53.734;10.258;2023-04-03T07:21:39;4.47;;;2.43;;
11731;SDS011;5922;53.734;10.258;2023-04-03T07:24:07;4.40;;;2.13;;
11731;SDS011;5922;53.734;10.258;2023-04-03T07:26:34;4.90;;;2.40;;
11731;SDS011;5922;53.734;10.258;2023-04-03T07:29:02;5.43;;;2.30;;
11731;SDS011;5922;53.734;10.258;2023-04-03T07:31:29;6.40;;;2.30;;
11731;SDS011;5922;53.734;10.258;2023-04-03T07:33:58;4.77;;;2.00;;
11731;SDS011;5922;53.734;10.258;2023-04-03T07:36:26;5.40;;;2.13;;
11731;SDS011;5922;53.734;10.258;2023-04-03T07:38:58;3.97;;;1.70;;
11731;SDS011;5922;53.734;10.258;2023-04-03T07:41:25;5.53;;;2.20;;
11731;SDS011;5922;53.734;10.258;2023-04-03T07:43:53;2.83;;;1.60;;
11731;SDS011;5922;53.734;10.258;2023-04-03T07:46:21;3.90;;;2.10;;
11731;SDS011;5922;53.734;10.258;2023-04-03T07:48:49;2.83;;;1.80;;
11731;SDS011;5922;53.734;10.258;2023-04-03T07:51:18;4.40;;;1.90;;
11731;SDS011;5922;53.734;10.258;2023-04-03T07:53:47;4.10;;;1.70;;
11731;SDS011;5922;53.734;10.258;2023-04-03T07:56:21;3.77;;;1.70;;
11731;SDS011;5922;53.734;10.258;2023-04-03T07:58:50;3.60;;;1.63;;
11731;SDS011;5922;53.734;10.258;2023-04-03T08:01:18;3.67;;;1.67;;
11731;SDS011;5922;53.734;10.258;2023-04-03T08:03:46;6.83;;;2.00;;
11731;SDS011;5922;53.734;10.258;2023-04-03T08:06:21;8.23;;;2.00;;
11731;SDS011;5922;53.734;10.258;2023-04-03T08:08:49;3.50;;;1.43;;
11731;SDS011;5922;53.734;10.258;2023-04-03T08:11:19;4.70;;;1.73;;
11731;SDS011;5922;53.734;10.258;2023-04-03T08:13:47;3.23;;;1.73;;
11731;SDS011;5922;53.734;10.258;2023-04-03T08:16:15;4.23;;;1.80;;
11731;SDS011;5922;53.734;10.258;2023-04-03T08:18:43;4.47;;;1.90;;
11731;SDS011;5922;53.734;10.258;2023-04-03T08:21:11;3.57;;;1.53;;
11731;SDS011;5922;53.734;10.258;2023-04-03T08:23:40;3.33;;;1.50;;
11731;SDS011;5922;53.734;10.258;2023-04-03T08:26:08;2.23;;;1.60;;
11731;SDS011;5922;53.734;10.258;2023-04-03T08:28:35;3.03;;;1.50;;
11731;SDS011;5922;53.734;10.258;2023-04-03T08:31:04;5.47;;;1.60;;
11731;SDS011;5922;53.734;10.258;2023-04-03T08:33:32;6.40;;;1.47;;
11731;SDS011;5922;53.734;10.258;2023-04-03T08:36:00;2.00;;;1.20;;
11731;SDS011;5922;53.734;10.258;2023-04-03T08:38:31;2.63;;;1.20;;
11731;SDS011;5922;53.734;10.258;2023-04-03T08:41:01;4.10;;;1.20;;
11731;SDS011;5922;53.734;10.258;2023-04-03T08:43:30;2.70;;;1.13;;
11731;SDS011;5922;53.734;10.258;2023-04-03T08:46:03;3.50;;;1.30;;
11731;SDS011;5922;53.734;10.258;2023-04-03T08:48:33;1.33;;;1.00;;
11731;SDS011;5922;53.734;10.258;2023-04-03T08:51:02;1.67;;;1.10;;
11731;SDS011;5922;53.734;10.258;2023-04-03T08:53:30;2.73;;;1.40;;
11731;SDS011;5922;53.734;10.258;2023-04-03T08:55:59;2.53;;;1.40;;
11731;SDS011;5922;53.734;10.258;2023-04-03T08:58:29;1.57;;;1.20;;
11731;SDS011;5922;53.734;10.258;2023-04-03T09:00:58;2.90;;;1.00;;
11731;SDS011;5922;53.734;10.258;2023-04-03T09:03:29;4.47;;;1.63;;
11731;SDS011;5922;53.734;10.258;2023-04-03T09:05:57;2.10;;;1.33;;
11731;SDS011;5922;53.734;10.258;2023-04-03T09:08:27;2.73;;;1.40;;
11731;SDS011;5922;53.734;10.258;2023-04-03T09:10:59;4.53;;;1.53;;
11731;SDS011;5922;53.734;10.258;2023-04-03T09:13:34;2.57;;;1.20;;
11731;SDS011;5922;53.734;10.258;2023-04-03T09:16:03;3.43;;;1.60;;
11731;SDS011;5922;53.734;10.258;2023-04-03T09:18:33;2.67;;;1.23;;
11731;SDS011;5922;53.734;10.258;2023-04-03T09:21:07;1.20;;;1.10;;
11731;SDS011;5922;53.734;10.258;2023-04-03T09:23:37;2.77;;;1.40;;
11731;SDS011;5922;53.734;10.258;2023-04-03T09:26:05;1.80;;;1.30;;
11731;SDS011;5922;53.734;10.258;2023-04-03T09:28:38;2.97;;;1.33;;
11731;SDS011;5922;53.734;10.258;2023-04-03T09:31:11;3.57;;;1.40;;
11731;SDS011;5922;53.734;10.258;2023-04-03T09:33:42;3.13;;;1.20;;
11731;SDS011;5922;53.734;10.258;2023-04-03T09:36:09;2.97;;;1.40;;
11731;SDS011;5922;53.734;10.258;2023-04-03T09:38:36;1.93;;;1.30;;
11731;SDS011;5922;53.734;10.258;2023-04-03T09:41:04;4.00;;;1.57;;
11731;SDS011;5922;53.734;10.258;2023-04-03T09:43:33;3.87;;;1.60;;
11731;SDS011;5922;53.734;10.258;2023-04-03T09:49:04;5.27;;;1.43;;
11731;SDS011;5922;53.734;10.258;2023-04-03T09:51:35;1.87;;;1.30;;
11731;SDS011;5922;53.734;10.258;2023-04-03T09:56:49;2.10;;;1.17;;
11731;SDS011;5922;53.734;10.258;2023-04-03T09:59:16;3.50;;;1.50;;
11731;SDS011;5922;53.734;10.258;2023-04-03T10:01:55;3.40;;;1.47;;
11731;SDS011;5922;53.734;10.258;2023-04-03T10:04:24;2.20;;;1.30;;
11731;SDS011;5922;53.734;10.258;2023-04-03T10:06:52;2.50;;;1.50;;
11731;SDS011;5922;53.734;10.258;2023-04-03T10:09:21;5.97;;;1.43;;
11731;SDS011;5922;53.734;10.258;2023-04-03T10:11:57;3.63;;;1.50;;
11731;SDS011;5922;53.734;10.258;2023-04-03T10:14:24;1.87;;;1.37;;
11731;SDS011;5922;53.734;10.258;2023-04-03T10:16:53;2.03;;;1.70;;
11731;SDS011;5922;53.734;10.258;2023-04-03T10:19:32;2.00;;;1.60;;
11731;SDS011;5922;53.734;10.258;2023-04-03T10:22:02;3.63;;;1.90;;
11731;SDS011;5922;53.734;10.258;2023-04-03T10:24:32;4.50;;;1.50;;
11731;SDS011;5922;53.734;10.258;2023-04-03T10:27:02;3.33;;;1.50;;
11731;SDS011;5922;53.734;10.258;2023-04-03T10:29:38;3.40;;;1.60;;
11731;SDS011;5922;53.734;10.258;2023-04-03T10:32:15;3.73;;;1.30;;
11731;SDS011;5922;53.734;10.258;2023-04-03T10:34:45;3.43;;;1.30;;
11731;SDS011;5922;53.734;10.258;2023-04-03T10:37:14;1.30;;;1.10;;
11731;SDS011;5922;53.734;10.258;2023-04-03T10:39:46;2.40;;;1.30;;
11731;SDS011;5922;53.734;10.258;2023-04-03T10:42:18;4.27;;;1.60;;
11731;SDS011;5922;53.734;10.258;2023-04-03T10:44:52;3.40;;;1.37;;
11731;SDS011;5922;53.734;10.258;2023-04-03T10:47:24;2.53;;;1.30;;
11731;SDS011;5922;53.734;10.258;2023-04-03T10:50:00;5.20;;;1.20;;
11731;SDS011;5922;53.734;10.258;2023-04-03T10:52:31;2.90;;;1.40;;
11731;SDS011;5922;53.734;10.258;2023-04-03T10:55:05;2.87;;;1.30;;
11731;SDS011;5922;53.734;10.258;2023-04-03T10:57:36;3.07;;;1.30;;
11731;SDS011;5922;53.734;10.258;2023-04-03T11:00:07;2.03;;;1.13;;
11731;SDS011;5922;53.734;10.258;2023-04-03T11:02:44;2.67;;;1.37;;
11731;SDS011;5922;53.734;10.258;2023-04-03T11:05:15;2.63;;;1.30;;
11731;SDS011;5922;53.734;10.258;2023-04-03T11:07:45;1.00;;;0.90;;
11731;SDS011;5922;53.734;10.258;2023-04-03T11:10:23;2.67;;;1.30;;
11731;SDS011;5922;53.734;10.258;2023-04-03T11:12:58;3.93;;;1.27;;
11731;SDS011;5922;53.734;10.258;2023-04-03T11:15:41;2.80;;;1.33;;
11731;SDS011;5922;53.734;10.258;2023-04-03T11:18:11;3.10;;;1.00;;
11731;SDS011;5922;53.734;10.258;2023-04-03T11:20:53;3.20;;;1.43;;
11731;SDS011;5922;53.734;10.258;2023-04-03T11:26:26;2.47;;;1.10;;
11731;SDS011;5922;53.734;10.258;2023-04-03T11:28:56;1.93;;;1.30;;
11731;SDS011;5922;53.734;10.258;2023-04-03T11:31:29;1.57;;;1.00;;
11731;SDS011;5922;53.734;10.258;2023-04-03T11:34:04;3.47;;;1.33;;
11731;SDS011;5922;53.734;10.258;2023-04-03T11:36:38;1.63;;;1.13;;
11731;SDS011;5922;53.734;10.258;2023-04-03T11:39:13;2.47;;;1.20;;
11731;SDS011;5922;53.734;10.258;2023-04-03T11:41:43;3.57;;;1.07;;
11731;SDS011;5922;53.734;10.258;2023-04-03T11:44:25;1.63;;;1.23;;
11731;SDS011;5922;53.734;10.258;2023-04-03T11:46:56;1.50;;;1.10;;
11731;SDS011;5922;53.734;10.258;2023-04-03T11:52:13;2.53;;;1.20;;
11731;SDS011;5922;53.734;10.258;2023-04-03T11:55:00;4.90;;;1.83;;
11731;SDS011;5922;53.734;10.258;2023-04-03T11:57:44;5.03;;;1.30;;
11731;SDS011;5922;53.734;10.258;2023-04-03T12:02:58;2.70;;;1.30;;
11731;SDS011;5922;53.734;10.258;2023-04-03T12:05:26;5.80;;;1.20;;
11731;SDS011;5922;53.734;10.258;2023-04-03T12:10:37;3.17;;;1.30;;
11731;SDS011;5922;53.734;10.258;2023-04-03T12:13:12;3.37;;;1.10;;
11731;SDS011;5922;53.734;10.258;2023-04-03T12:15:47;3.27;;;1.50;;
11731;SDS011;5922;53.734;10.258;2023-04-03T12:21:13;5.90;;;1.40;;
11731;SDS011;5922;53.734;10.258;2023-04-03T12:24:00;2.47;;;1.00;;
11731;SDS011;5922;53.734;10.258;2023-04-03T12:26:30;1.97;;;1.10;;
11731;SDS011;5922;53.734;10.258;2023-04-03T12:28:57;2.17;;;1.20;;
11731;SDS011;5922;53.734;10.258;2023-04-03T12:31:25;3.30;;;1.20;;
11731;SDS011;5922;53.734;10.258;2023-04-03T12:34:01;2.67;;;1.20;;
11731;SDS011;5922;53.734;10.258;2023-04-03T12:36:34;3.43;;;1.30;;
11731;SDS011;5922;53.734;10.258;2023-04-03T12:39:06;2.47;;;1.10;;
11731;SDS011;5922;53.734;10.258;2023-04-03T12:41:41;2.63;;;1.20;;
11731;SDS011;5922;53.734;10.258;2023-04-03T12:44:24;1.53;;;1.07;;
11731;SDS011;5922;53.734;10.258;2023-04-03T12:46:53;3.00;;;1.27;;
11731;SDS011;5922;53.734;10.258;2023-04-03T12:49:31;1.87;;;1.40;;
11731;SDS011;5922;53.734;10.258;2023-04-03T12:52:00;2.50;;;1.23;;
11731;SDS011;5922;53.734;10.258;2023-04-03T12:54:30;1.97;;;1.10;;
11731;SDS011;5922;53.734;10.258;2023-04-03T12:57:10;3.93;;;1.63;;
11731;SDS011;5922;53.734;10.258;2023-04-03T12:59:37;1.83;;;1.10;;
11731;SDS011;5922;53.734;10.258;2023-04-03T13:02:10;2.17;;;1.10;;
11731;SDS011;5922;53.734;10.258;2023-04-03T13:04:42;3.87;;;1.30;;
11731;SDS011;5922;53.734;10.258;2023-04-03T13:07:18;2.07;;;1.40;;
11731;SDS011;5922;53.734;10.258;2023-04-03T13:09:56;2.87;;;1.10;;
11731;SDS011;5922;53.734;10.258;2023-04-03T13:12:25;1.30;;;1.20;;
11731;SDS011;5922;53.734;10.258;2023-04-03T13:14:53;2.87;;;1.10;;
11731;SDS011;5922;53.734;10.258;2023-04-03T13:17:22;1.30;;;1.10;;
11731;SDS011;5922;53.734;10.258;2023-04-03T13:19:49;2.57;;;1.40;;
11731;SDS011;5922;53.734;10.258;2023-04-03T13:22:21;2.63;;;1.30;;
11731;SDS011;5922;53.734;10.258;2023-04-03T13:24:51;1.50;;;1.40;;
11731;SDS011;5922;53.734;10.258;2023-04-03T13:27:18;3.27;;;1.50;;
11731;SDS011;5922;53.734;10.258;2023-04-03T13:29:50;3.37;;;1.40;;
11731;SDS011;5922;53.734;10.258;2023-04-03T13:32:18;2.77;;;1.33;;
11731;SDS011;5922;53.734;10.258;2023-04-03T13:34:46;3.67;;;1.23;;
11731;SDS011;5922;53.734;10.258;2023-04-03T13:37:20;3.03;;;1.70;;
11731;SDS011;5922;53.734;10.258;2023-04-03T13:39:56;3.00;;;1.40;;
11731;SDS011;5922;53.734;10.258;2023-04-03T13:42:25;2.23;;;1.47;;
11731;SDS011;5922;53.734;10.258;2023-04-03T13:45:17;2.90;;;1.30;;
11731;SDS011;5922;53.734;10.258;2023-04-03T13:47:46;1.43;;;1.20;;
11731;SDS011;5922;53.734;10.258;2023-04-03T13:50:14;3.43;;;1.50;;
11731;SDS011;5922;53.734;10.258;2023-04-03T13:52:43;2.00;;;1.20;;
11731;SDS011;5922;53.734;10.258;2023-04-03T13:55:19;2.43;;;1.30;;
11731;SDS011;5922;53.734;10.258;2023-04-03T13:57:50;3.43;;;1.80;;
11731;SDS011;5922;53.734;10.258;2023-04-03T14:00:28;3.63;;;1.40;;
11731;SDS011;5922;53.734;10.258;2023-04-03T14:02:56;3.10;;;1.23;;
11731;SDS011;5922;53.734;10.258;2023-04-03T14:05:23;2.57;;;1.40;;
11731;SDS011;5922;53.734;10.258;2023-04-03T14:07:52;4.97;;;1.87;;
11731;SDS011;5922;53.734;10.258;2023-04-03T14:10:19;3.23;;;1.60;;
11731;SDS011;5922;53.734;10.258;2023-04-03T14:12:46;1.67;;;1.40;;
11731;SDS011;5922;53.734;10.258;2023-04-03T14:15:16;2.37;;;1.27;;
11731;SDS011;5922;53.734;10.258;2023-04-03T14:17:46;3.77;;;1.57;;
11731;SDS011;5922;53.734;10.258;2023-04-03T14:20:14;2.50;;;1.20;;
11731;SDS011;5922;53.734;10.258;2023-04-03T14:31:19;2.90;;;1.57;;
11731;SDS011;5922;53.734;10.258;2023-04-03T14:33:58;3.07;;;1.50;;
11731;SDS011;5922;53.734;10.258;2023-04-03T14:36:28;2.27;;;1.33;;
11731;SDS011;5922;53.734;10.258;2023-04-03T14:38:58;4.47;;;1.80;;
11731;SDS011;5922;53.734;10.258;2023-04-03T14:41:27;4.37;;;1.67;;
11731;SDS011;5922;53.734;10.258;2023-04-03T14:43:54;2.83;;;1.40;;
11731;SDS011;5922;53.734;10.258;2023-04-03T14:46:23;4.50;;;1.47;;
11731;SDS011;5922;53.734;10.258;2023-04-03T14:49:00;5.03;;;1.80;;
11731;SDS011;5922;53.734;10.258;2023-04-03T14:51:28;2.30;;;1.50;;
11731;SDS011;5922;53.734;10.258;2023-04-03T14:53:56;3.57;;;1.43;;
11731;SDS011;5922;53.734;10.258;2023-04-03T14:56:32;4.97;;;2.10;;
11731;SDS011;5922;53.734;10.258;2023-04-03T14:59:11;3.93;;;1.30;;
11731;SDS011;5922;53.734;10.258;2023-04-03T15:01:38;3.23;;;1.77;;
11731;SDS011;5922;53.734;10.258;2023-04-03T15:04:11;4.50;;;1.50;;
11731;SDS011;5922;53.734;10.258;2023-04-03T15:06:38;4.07;;;1.57;;
11731;SDS011;5922;53.734;10.258;2023-04-03T15:09:22;2.90;;;1.53;;
11731;SDS011;5922;53.734;10.258;2023-04-03T15:11:51;3.10;;;1.50;;
11731;SDS011;5922;53.734;10.258;2023-04-03T15:14:22;3.23;;;1.80;;
11731;SDS011;5922;53.734;10.258;2023-04-03T15:16:49;1.47;;;1.07;;
11731;SDS011;5922;53.734;10.258;2023-04-03T15:19:18;5.47;;;1.70;;
11731;SDS011;5922;53.734;10.258;2023-04-03T15:21:45;3.33;;;1.40;;
11731;SDS011;5922;53.734;10.258;2023-04-03T15:24:13;4.00;;;1.60;;
11731;SDS011;5922;53.734;10.258;2023-04-03T15:26:40;4.10;;;1.73;;
11731;SDS011;5922;53.734;10.258;2023-04-03T15:29:07;3.03;;;1.60;;
11731;SDS011;5922;53.734;10.258;2023-04-03T15:31:34;4.17;;;1.70;;
11731;SDS011;5922;53.734;10.258;2023-04-03T15:34:02;4.37;;;1.70;;